Time;durP1;ratioP1;P1;durP2;ratioP2;P2;SDS_P1;SDS_P2;PMS_P1;PMS_P2;Temp;Humidity;BMP_temperature;BMP_pressure;BME280_temperature;BME280_humidity;BME280_pressure;Samples;Min_cycle;Max_cycle;Signal;HPM_P1;HPM_P2
2022/08/14 00:00:45;;;;;;;17.33;12.23;;;;;;;-141.28;100.00;46287.34;5097225;28;20208;-74
2022/08/14 00:03:20;;;;;;;19.90;13.80;;;;;;;-141.28;100.00;46312.81;5097896;28;20191;-76
2022/08/14 00:05:47;;;;;;;20.07;14.43;;;;;;;-141.28;100.00;46297.13;5070342;28;20223;-73
2022/08/14 00:08:14;;;;;;;16.77;11.90;;;;;;;-141.28;100.00;46295.19;5097840;28;20191;-75
2022/08/14 00:10:42;;;;;;;14.07;12.10;;;;;;;-141.28;100.00;46312.81;5084163;28;20957;-75
2022/08/14 00:13:09;;;;;;;15.10;12.30;;;;;;;-141.28;100.00;46279.50;5097922;28;20705;-75
2022/08/14 00:15:40;;;;;;;16.60;12.37;;;;;;;-141.28;100.00;46281.44;5096758;28;20195;-76
2022/08/14 00:18:09;;;;;;;15.03;12.23;;;;;;;-141.28;100.00;46279.50;5097393;28;20628;-74
2022/08/14 00:20:42;;;;;;;16.13;12.30;;;;;;;-141.28;100.00;46275.56;5096484;28;20192;-73
2022/08/14 00:23:11;;;;;;;12.90;11.50;;;;;;;-141.28;100.00;46273.63;5083036;28;20195;-77
2022/08/14 00:25:39;;;;;;;14.23;10.97;;;;;;;-141.28;100.00;46265.78;5084970;28;20698;-75
2022/08/14 00:28:09;;;;;;;16.87;11.30;;;;;;;-141.28;100.00;46269.69;5077825;28;20196;-74
2022/08/14 00:30:37;;;;;;;12.67;11.37;;;;;;;-141.28;100.00;46269.69;5096362;28;20226;-75
2022/08/14 00:33:04;;;;;;;17.40;11.67;;;;;;;-141.28;100.00;46320.66;5102200;28;20722;-74
2022/08/14 00:35:37;;;;;;;15.40;10.90;;;;;;;-141.28;100.00;46281.44;5100114;28;20234;-75
2022/08/14 00:38:05;;;;;;;12.27;10.50;;;;;;;-141.28;100.00;46289.28;5098313;28;20556;-76
2022/08/14 00:40:32;;;;;;;11.13;10.03;;;;;;;-141.28;100.00;46285.38;5111234;28;20195;-76
2022/08/14 00:42:59;;;;;;;13.47;10.60;;;;;;;-141.28;100.00;46285.38;5097848;28;20646;-76
2022/08/14 00:45:26;;;;;;;15.37;10.13;;;;;;;-141.28;100.00;46287.34;5097885;28;20246;-74
2022/08/14 00:47:54;;;;;;;16.90;11.23;;;;;;;-141.28;100.00;46293.22;5106946;28;20536;-76
2022/08/14 00:50:22;;;;;;;15.07;9.97;;;;;;;-141.28;100.00;46310.88;5114450;28;20202;-76
2022/08/14 00:52:53;;;;;;;11.53;9.60;;;;;;;-141.28;100.00;46324.59;5096279;28;20282;-75
2022/08/14 00:55:21;;;;;;;20.17;10.53;;;;;;;-141.28;100.00;46324.59;5101070;28;20629;-75
2022/08/14 00:58:29;;;;;;;15.90;10.50;;;;;;;-141.28;100.00;46340.28;5097844;28;20644;-74
2022/08/14 01:00:37;;;;;;;11.27;9.90;;;;;;;-141.28;100.00;46350.06;5096380;28;20256;-76
2022/08/14 01:03:05;;;;;;;13.27;10.53;;;;;;;-141.28;100.00;46328.50;5113237;28;20206;-75
2022/08/14 01:05:34;;;;;;;13.60;11.33;;;;;;;-141.28;100.00;46320.66;5114218;28;20222;-75
2022/08/14 01:08:03;;;;;;;12.87;10.67;;;;;;;-141.28;100.00;46316.75;5110226;28;20214;-74
2022/08/14 01:13:15;;;;;;;18.37;11.33;;;;;;;-141.28;100.00;46318.69;5113772;28;20277;-76
2022/08/14 01:15:42;;;;;;;14.73;11.60;;;;;;;-141.28;100.00;46304.97;5100751;28;20195;-74
2022/08/14 01:21:05;;;;;;;14.33;11.30;;;;;;;-141.28;100.00;46316.75;5101428;28;20198;-76
2022/08/14 01:23:34;;;;;;;12.70;11.37;;;;;;;-141.28;100.00;46308.91;5094888;28;20195;-75
2022/08/14 01:26:01;;;;;;;13.50;11.60;;;;;;;-141.28;100.00;46299.09;5097484;28;20230;-74
2022/08/14 01:28:30;;;;;;;16.33;12.20;;;;;;;-141.28;100.00;46304.97;5111286;28;20187;-77
2022/08/14 01:30:58;;;;;;;15.10;12.23;;;;;;;-141.28;100.00;46289.28;5114426;28;20230;-76
2022/08/14 01:33:28;;;;;;;15.27;12.57;;;;;;;-141.28;100.00;46285.38;5113141;28;20195;-75
2022/08/14 01:35:57;;;;;;;18.73;12.17;;;;;;;-141.28;100.00;46289.28;5113620;28;20209;-75
2022/08/14 01:38:25;;;;;;;16.80;11.70;;;;;;;-141.28;100.00;46285.38;5112855;28;20274;-76
2022/08/14 01:40:55;;;;;;;19.30;13.07;;;;;;;-141.28;100.00;46289.28;5113566;28;20234;-74
2022/08/14 01:43:29;;;;;;;14.77;12.17;;;;;;;-141.28;100.00;46287.34;5113108;28;20202;-75
2022/08/14 01:45:59;;;;;;;18.13;13.40;;;;;;;-141.28;100.00;46293.22;5101227;28;20237;-75
2022/08/14 01:48:29;;;;;;;18.63;12.23;;;;;;;-141.28;100.00;46301.06;5093065;28;20647;-76
2022/08/14 01:51:00;;;;;;;17.33;12.90;;;;;;;-141.28;100.00;46312.81;5091897;28;20208;-74
2022/08/14 01:53:28;;;;;;;18.03;13.00;;;;;;;-141.28;100.00;46301.06;5093312;28;20276;-73
2022/08/14 01:55:59;;;;;;;17.40;12.67;;;;;;;-141.28;100.00;46299.09;5091621;28;20195;-75
2022/08/14 01:58:28;;;;;;;17.10;13.57;;;;;;;-141.28;100.00;46308.91;5089852;28;20225;-74
2022/08/14 02:00:57;;;;;;;22.57;13.47;;;;;;;-141.28;100.00;46316.75;5078268;28;20654;-77
2022/08/14 02:03:27;;;;;;;16.43;13.07;;;;;;;-141.28;100.00;46324.59;5092823;28;20282;-75
2022/08/14 02:05:58;;;;;;;19.10;13.83;;;;;;;-141.28;100.00;46322.63;5083332;28;20217;-74
2022/08/14 02:08:29;;;;;;;18.40;14.63;;;;;;;-141.28;100.00;46334.38;5084843;28;20237;-75
2022/08/14 02:11:17;;;;;;;30.00;14.73;;;;;;;-141.28;100.00;46340.28;5078916;28;20203;-75
2022/08/14 02:13:46;;;;;;;19.97;15.03;;;;;;;-141.28;100.00;46367.72;5090573;28;20287;-75
2022/08/14 02:16:15;;;;;;;24.33;14.30;;;;;;;-141.28;100.00;46369.69;5082867;28;20204;-75
2022/08/14 02:18:42;;;;;;;17.87;14.57;;;;;;;-141.28;100.00;46359.88;5075847;28;20270;-75
2022/08/14 02:21:12;;;;;;;21.03;14.03;;;;;;;-141.28;100.00;46357.91;5091669;28;20192;-74
2022/08/14 02:23:39;;;;;;;21.10;14.50;;;;;;;-141.28;100.00;46359.88;5074459;28;20200;-76
2022/08/14 02:26:18;;;;;;;18.50;14.83;;;;;;;-141.28;100.00;46375.56;5083439;28;20235;-75
2022/08/14 02:28:45;;;;;;;19.23;14.80;;;;;;;-141.28;100.00;46379.47;5066491;28;20285;-74
2022/08/14 02:31:13;;;;;;;21.67;15.43;;;;;;;-141.28;100.00;46377.53;5084813;28;20223;-76
2022/08/14 02:33:41;;;;;;;20.57;16.07;;;;;;;-141.28;100.00;46389.28;5085594;28;20196;-73
2022/08/14 02:36:09;;;;;;;22.67;16.43;;;;;;;-141.28;100.00;46383.41;5077658;28;20217;-75
2022/08/14 02:38:39;;;;;;;19.27;15.53;;;;;;;-141.28;100.00;46420.66;5072737;28;20725;-75
2022/08/14 02:41:10;;;;;;;22.93;15.63;;;;;;;-141.28;100.00;46414.75;5072060;28;20659;-76
2022/08/14 02:43:41;;;;;;;22.43;15.77;;;;;;;-141.28;100.00;46418.69;5072819;28;20196;-74
2022/08/14 02:46:10;;;;;;;20.70;15.23;;;;;;;-141.28;100.00;46414.75;5072264;28;20232;-76
2022/08/14 02:48:39;;;;;;;22.93;16.37;;;;;;;-141.28;100.00;46416.72;5072565;28;20222;-75
2022/08/14 02:51:10;;;;;;;24.20;16.17;;;;;;;-141.28;100.00;46426.53;5072808;28;20582;-74
2022/08/14 02:53:43;;;;;;;26.90;15.63;;;;;;;-141.28;100.00;46436.34;5073335;28;20196;-75
2022/08/14 02:56:14;;;;;;;20.93;15.43;;;;;;;-141.28;100.00;46457.91;5072360;28;20200;-77
2022/08/14 02:58:46;;;;;;;18.17;15.03;;;;;;;-141.28;100.00;46471.63;5072325;28;20203;-73
2022/08/14 03:01:15;;;;;;;17.83;13.13;;;;;;;-141.28;100.00;46491.22;5070405;28;20196;-75
2022/08/14 03:03:44;;;;;;;21.80;13.90;;;;;;;-141.28;100.00;46465.75;5072298;28;20234;-75
2022/08/14 03:06:13;;;;;;;18.30;14.50;;;;;;;-141.28;100.00;46469.66;5058589;28;20227;-74
2022/08/14 03:08:43;;;;;;;19.30;14.17;;;;;;;-141.28;100.00;46475.53;5073975;28;20204;-76
2022/08/14 03:11:11;;;;;;;20.10;14.27;;;;;;;-141.28;100.00;46481.44;5095240;28;20708;-76
2022/08/14 03:13:40;;;;;;;16.77;13.87;;;;;;;-141.28;100.00;46487.31;5091755;28;20199;-75
2022/08/14 03:16:13;;;;;;;20.73;14.37;;;;;;;-141.28;100.00;46504.94;5071507;28;20208;-75
2022/08/14 03:18:43;;;;;;;31.77;18.23;;;;;;;-141.28;100.00;46501.03;5085777;28;20273;-74
2022/08/14 03:21:12;;;;;;;23.47;15.77;;;;;;;-141.28;100.00;46508.88;5091217;28;20207;-75
2022/08/14 03:23:41;;;;;;;24.30;17.73;;;;;;;-141.28;100.00;46508.88;5075005;28;20204;-75
2022/08/14 03:26:09;;;;;;;24.93;18.43;;;;;;;-141.28;100.00;46520.63;5070914;28;20223;-75
2022/08/14 03:28:40;;;;;;;27.77;18.33;;;;;;;-141.28;100.00;46524.56;5072572;28;20542;-75
2022/08/14 03:31:11;;;;;;;24.47;16.13;;;;;;;-141.28;100.00;46552.00;5071377;28;20208;-77
2022/08/14 03:33:39;;;;;;;20.83;16.33;;;;;;;-141.28;100.00;46544.16;5071394;28;20204;-75
2022/08/14 03:36:11;;;;;;;22.67;16.20;;;;;;;-141.28;100.00;46540.25;5071542;28;20200;-75
2022/08/14 03:38:41;;;;;;;23.10;16.17;;;;;;;-141.28;100.00;46553.97;5071893;28;20196;-74
2022/08/14 03:41:13;;;;;;;20.27;15.47;;;;;;;-141.28;100.00;46552.00;5058543;28;20200;-76
2022/08/14 03:43:40;;;;;;;22.30;16.23;;;;;;;-141.28;100.00;46559.84;5053521;28;20203;-75
2022/08/14 03:46:10;;;;;;;24.07;16.43;;;;;;;-141.28;100.00;46552.00;5071674;28;20698;-76
2022/08/14 03:48:38;;;;;;;23.43;16.83;;;;;;;-141.28;100.00;46552.00;5070935;28;20217;-73
2022/08/14 03:51:07;;;;;;;22.97;17.40;;;;;;;-141.28;100.00;46561.81;5071528;28;20200;-76
2022/08/14 03:53:36;;;;;;;26.13;17.13;;;;;;;-141.28;100.00;46563.78;5071552;28;20224;-74
2022/08/14 03:56:06;;;;;;;26.47;17.30;;;;;;;-141.28;100.00;46571.63;5071170;28;20204;-74
2022/08/14 03:58:34;;;;;;;20.53;16.33;;;;;;;-141.28;100.00;46575.53;5071768;28;20295;-75
2022/08/14 04:01:02;;;;;;;31.40;17.40;;;;;;;-141.28;100.00;46599.06;5069917;28;20522;-74
2022/08/14 04:03:32;;;;;;;24.90;18.07;;;;;;;-141.28;100.00;46581.41;5082550;28;20282;-76
2022/08/14 04:05:59;;;;;;;30.23;20.67;;;;;;;-141.28;100.00;46583.38;5085240;28;20285;-75
2022/08/14 04:08:26;;;;;;;33.57;21.00;;;;;;;-141.28;100.00;46585.34;5070885;28;20200;-74
2022/08/14 04:10:55;;;;;;;32.27;21.07;;;;;;;-141.28;100.00;46589.25;5070480;28;20236;-75
2022/08/14 04:13:22;;;;;;;34.03;22.47;;;;;;;-141.28;100.00;46595.13;5083759;28;20666;-73
2022/08/14 04:15:49;;;;;;;35.13;22.03;;;;;;;-141.28;100.00;46599.06;5077374;28;20214;-75
2022/08/14 04:18:16;;;;;;;38.77;23.37;;;;;;;-141.28;100.00;46608.88;5072967;28;20740;-74
2022/08/14 04:20:47;;;;;;;37.73;21.77;;;;;;;-141.28;100.00;46573.56;5084327;28;20203;-77
2022/08/14 04:23:15;;;;;;;38.53;22.07;;;;;;;-141.28;100.00;46606.91;5071206;28;20200;-75
2022/08/14 04:25:43;;;;;;;36.13;21.63;;;;;;;-141.28;100.00;46614.75;5083205;28;20693;-74
2022/08/14 04:28:14;;;;;;;34.17;20.37;;;;;;;-141.28;100.00;46616.72;5085323;28;20195;-75
2022/08/14 04:30:42;;;;;;;33.43;21.23;;;;;;;-141.28;100.00;46618.66;5091069;28;20211;-76
2022/08/14 04:33:10;;;;;;;32.23;21.73;;;;;;;-141.28;100.00;46618.66;5090303;28;20578;-74
2022/08/14 04:35:38;;;;;;;33.23;20.90;;;;;;;-141.28;100.00;46634.34;5091877;28;20203;-74
2022/08/14 04:43:39;;;;;;;37.90;21.73;;;;;;;-141.28;100.00;46693.16;5086163;28;20342;-73
2022/08/14 04:46:07;;;;;;;36.00;21.70;;;;;;;-141.28;100.00;46689.25;5076216;28;20376;-74
2022/08/14 04:48:33;;;;;;;31.57;18.60;;;;;;;-141.28;100.00;46681.41;5094290;28;20196;-73
2022/08/14 04:51:01;;;;;;;28.97;18.60;;;;;;;-141.28;100.00;46677.50;5093467;28;20576;-76
2022/08/14 04:53:32;;;;;;;35.47;24.73;;;;;;;-141.28;100.00;46685.31;5094552;28;20196;-76
2022/08/14 04:56:00;;;;;;;38.50;24.60;;;;;;;-141.28;100.00;46685.31;5093920;28;20210;-75
2022/08/14 04:58:30;;;;;;;32.10;20.83;;;;;;;-141.28;100.00;46687.28;5094253;28;20283;-75
2022/08/14 05:00:58;;;;;;;27.47;17.70;;;;;;;-141.28;100.00;46697.09;5075374;28;20192;-75
2022/08/14 05:03:27;;;;;;;26.53;17.50;;;;;;;-141.28;100.00;46689.25;5074241;28;20202;-77
2022/08/14 05:06:00;;;;;;;23.83;17.03;;;;;;;-141.28;100.00;46695.13;5084617;28;20199;-75
2022/08/14 05:08:39;;;;;;;24.57;17.87;;;;;;;-141.28;100.00;46701.00;5090940;28;20200;-77
2022/08/14 05:11:09;;;;;;;20.57;15.90;;;;;;;-141.28;100.00;46704.94;5075429;28;20660;-75
2022/08/14 05:13:37;;;;;;;24.87;17.50;;;;;;;-141.28;100.00;46704.94;5094988;28;20211;-75
2022/08/14 05:16:15;;;;;;;25.60;17.30;;;;;;;-141.28;100.00;46732.38;5094441;28;20199;-76
2022/08/14 05:18:48;;;;;;;27.40;17.67;;;;;;;-141.28;100.00;46736.31;5086441;28;20651;-75
2022/08/14 05:21:15;;;;;;;24.67;17.57;;;;;;;-141.28;100.00;46740.22;5043567;28;20199;-77
2022/08/14 05:23:44;;;;;;;22.57;16.83;;;;;;;-141.28;100.00;46724.53;5090242;28;20680;-77
2022/08/14 05:26:16;;;;;;;25.13;17.90;;;;;;;-141.28;100.00;46716.69;5087254;28;20199;-76
2022/08/14 05:28:44;;;;;;;27.23;18.60;;;;;;;-141.28;100.00;46724.53;5087288;28;20598;-76
2022/08/14 05:31:15;;;;;;;23.37;17.63;;;;;;;-141.28;100.00;46726.50;5093231;28;20216;-75
2022/08/14 05:33:42;;;;;;;26.73;18.87;;;;;;;-141.28;100.00;46732.38;5093081;28;20291;-76
2022/08/14 05:36:11;;;;;;;28.67;19.73;;;;;;;-141.28;100.00;46740.22;5093624;28;20210;-75
2022/08/14 05:38:40;;;;;;;28.43;19.30;;;;;;;-141.28;100.00;46685.31;5079949;28;20191;-75
2022/08/14 05:41:12;;;;;;;29.97;19.50;;;;;;;-141.28;100.00;46736.31;5081207;28;20291;-75
2022/08/14 05:43:39;;;;;;;27.63;18.37;;;;;;;-141.28;100.00;46732.38;5059933;28;20266;-74
2022/08/14 05:46:11;;;;;;;29.40;19.20;;;;;;;-141.28;100.00;46726.50;5055009;28;20311;-75
2022/08/14 05:48:39;;;;;;;23.87;17.43;;;;;;;-141.28;100.00;46734.34;5073243;28;20192;-76
2022/08/14 05:51:08;;;;;;;29.67;17.83;;;;;;;-141.28;100.00;46724.53;5073312;28;20200;-74
2022/08/14 05:53:36;;;;;;;27.10;17.90;;;;;;;-141.28;100.00;46732.38;5073170;28;20655;-77
2022/08/14 05:56:14;;;;;;;25.57;18.07;;;;;;;-141.28;100.00;46748.06;5073056;28;20279;-76
2022/08/14 05:58:43;;;;;;;28.40;19.20;;;;;;;-141.28;100.00;46750.03;5073180;28;20591;-77
2022/08/14 06:01:15;;;;;;;30.27;18.70;;;;;;;-141.28;100.00;46740.22;5071667;28;20197;-74
2022/08/14 06:03:43;;;;;;;27.47;19.57;;;;;;;-141.28;100.00;46734.34;5073384;28;20574;-76
2022/08/14 06:06:15;;;;;;;28.57;20.37;;;;;;;-141.28;100.00;46748.06;5080129;28;20490;-77
2022/08/14 06:08:43;;;;;;;26.63;19.07;;;;;;;-141.28;100.00;46753.94;5066379;28;20208;-74
2022/08/14 06:11:12;;;;;;;31.27;19.43;;;;;;;-141.28;100.00;46748.06;5092991;28;20207;-74
2022/08/14 06:13:44;;;;;;;27.43;18.57;;;;;;;-141.28;100.00;46750.03;5092392;28;20207;-75
2022/08/14 06:16:13;;;;;;;27.03;18.90;;;;;;;-141.28;100.00;46740.22;5092560;28;20200;-75
2022/08/14 06:18:41;;;;;;;25.80;18.83;;;;;;;-141.28;100.00;46748.06;5084206;28;20647;-74
2022/08/14 06:21:09;;;;;;;26.93;18.03;;;;;;;-141.28;100.00;46752.00;5072380;28;20192;-76
2022/08/14 06:23:36;;;;;;;28.93;17.90;;;;;;;-141.28;100.00;46744.16;5072384;28;20279;-73
2022/08/14 06:26:04;;;;;;;27.13;18.63;;;;;;;-141.28;100.00;46752.00;5072346;28;20196;-76
2022/08/14 06:28:33;;;;;;;24.47;18.03;;;;;;;-141.28;100.00;46726.50;5072460;28;20223;-75
2022/08/14 06:31:03;;;;;;;25.53;18.17;;;;;;;-141.28;100.00;46746.09;5072412;28;20223;-76
2022/08/14 06:33:31;;;;;;;23.40;18.17;;;;;;;-141.28;100.00;46734.34;5088485;28;20724;-76
2022/08/14 06:36:00;;;;;;;25.27;18.33;;;;;;;-141.28;100.00;46724.53;5072641;28;20231;-76
2022/08/14 06:38:28;;;;;;;28.70;19.00;;;;;;;-141.28;100.00;46732.38;5082290;28;20192;-75
2022/08/14 06:40:56;;;;;;;23.80;18.50;;;;;;;-141.28;100.00;46712.78;5063507;28;20200;-75
2022/08/14 06:43:25;;;;;;;36.07;19.40;;;;;;;-141.28;100.00;46783.38;5085742;28;20287;-76
2022/08/14 06:45:53;;;;;;;27.27;19.70;;;;;;;-141.28;100.00;46730.41;5084973;28;20223;-75
2022/08/14 06:48:25;;;;;;;29.60;21.33;;;;;;;-141.28;100.00;46740.22;5079850;28;20310;-74
2022/08/14 06:50:55;;;;;;;28.30;19.80;;;;;;;-141.28;100.00;46728.47;5093979;28;20199;-75
2022/08/14 06:53:22;;;;;;;31.13;20.97;;;;;;;-141.28;100.00;46720.63;5092500;28;20244;-75
2022/08/14 06:55:51;;;;;;;28.03;20.17;;;;;;;-141.28;100.00;46722.59;5091905;28;20236;-73
2022/08/14 06:58:20;;;;;;;33.17;20.57;;;;;;;-141.28;100.00;46716.69;5084905;28;20196;-74
2022/08/14 07:06:25;;;;;;;30.60;21.80;;;;;;;-141.28;100.00;46726.50;5048973;28;20210;-75
2022/08/14 07:08:52;;;;;;;30.90;21.13;;;;;;;-141.28;100.00;46712.78;5065440;28;20230;-74
2022/08/14 07:11:19;;;;;;;30.77;20.57;;;;;;;-141.28;100.00;46675.53;5077515;28;20573;-76
2022/08/14 07:13:46;;;;;;;27.60;20.53;;;;;;;-141.28;100.00;46663.75;5072126;28;20287;-74
2022/08/14 07:16:14;;;;;;;28.73;20.80;;;;;;;-141.28;100.00;46655.91;5072105;28;20203;-75
2022/08/14 07:18:47;;;;;;;26.30;20.77;;;;;;;-141.28;100.00;46653.97;5084384;28;20197;-74
2022/08/14 07:21:16;;;;;;;26.40;20.47;;;;;;;-141.28;100.00;46644.16;5084648;28;20282;-75
2022/08/14 07:23:45;;;;;;;26.90;19.67;;;;;;;-141.28;100.00;46636.31;5080544;28;20202;-74
2022/08/14 07:26:12;;;;;;;29.33;20.57;;;;;;;-141.28;100.00;46663.75;5077043;28;20287;-75
2022/08/14 07:28:40;;;;;;;23.83;19.73;;;;;;;-141.28;100.00;46622.59;5072010;28;20224;-76
2022/08/14 07:31:11;;;;;;;26.80;20.80;;;;;;;-141.28;100.00;46616.72;5071211;28;20224;-74
2022/08/14 07:33:40;;;;;;;24.23;19.57;;;;;;;-141.28;100.00;46618.66;5071495;28;20200;-75
2022/08/14 07:36:13;;;;;;;24.43;18.83;;;;;;;-141.28;100.00;46634.34;5091262;28;20203;-75
2022/08/14 07:38:40;;;;;;;25.97;18.00;;;;;;;-141.28;100.00;46653.97;5075255;28;20563;-74
2022/08/14 07:41:10;;;;;;;20.87;17.50;;;;;;;-141.28;100.00;46652.00;5074867;28;20634;-73
2022/08/14 07:43:42;;;;;;;22.13;17.53;;;;;;;-141.28;100.00;46663.75;5091686;28;20192;-74
2022/08/14 07:46:09;;;;;;;21.50;16.53;;;;;;;-141.28;100.00;46681.41;5077410;28;20234;-75
2022/08/14 07:48:42;;;;;;;19.37;16.50;;;;;;;-141.28;100.00;46710.81;5087349;28;20219;-74
2022/08/14 07:51:11;;;;;;;21.10;16.33;;;;;;;-141.28;100.00;46726.50;5077602;28;20202;-73
2022/08/14 07:53:39;;;;;;;23.40;15.63;;;;;;;-141.28;100.00;46748.06;5089733;28;20199;-76
2022/08/14 07:56:10;;;;;;;18.47;16.43;;;;;;;-141.28;100.00;46759.84;5071474;28;20254;-74
2022/08/14 07:58:38;;;;;;;23.63;16.37;;;;;;;-141.28;100.00;46763.75;5073764;28;20234;-76
2022/08/14 08:01:07;;;;;;;19.20;15.13;;;;;;;-141.28;100.00;46755.91;5071481;28;20196;-75
2022/08/14 08:03:35;;;;;;;18.00;15.57;;;;;;;-141.28;100.00;46759.84;5071613;28;20205;-77
2022/08/14 08:06:03;;;;;;;16.53;14.80;;;;;;;-141.28;100.00;46750.03;5071561;28;20670;-76
2022/08/14 08:08:32;;;;;;;17.13;14.00;;;;;;;-141.28;100.00;46763.75;5071747;28;20224;-76
2022/08/14 08:11:02;;;;;;;16.17;14.03;;;;;;;-141.28;100.00;46753.94;5073078;28;20215;-76
2022/08/14 08:13:33;;;;;;;18.17;14.10;;;;;;;-141.28;100.00;46767.69;5095103;28;20194;-76
2022/08/14 08:16:02;;;;;;;15.47;13.87;;;;;;;-141.28;100.00;46773.56;5093795;28;20206;-75
2022/08/14 08:18:28;;;;;;;14.13;12.00;;;;;;;-141.28;100.00;46779.44;5081560;28;20390;-75
2022/08/14 08:20:56;;;;;;;15.50;10.70;;;;;;;-141.28;100.00;46765.72;5074526;28;20200;-76
2022/08/14 08:23:25;;;;;;;13.27;11.73;;;;;;;-141.28;100.00;46761.78;5074184;28;20682;-74
2022/08/14 08:25:53;;;;;;;14.53;12.27;;;;;;;-141.28;100.00;46759.84;5075419;28;20193;-76
2022/08/14 08:28:22;;;;;;;14.90;11.67;;;;;;;-141.28;100.00;46755.91;5074700;28;20820;-75
2022/08/14 08:30:53;;;;;;;14.43;12.60;;;;;;;-141.28;100.00;46736.31;5074918;28;20663;-74
2022/08/14 08:33:22;;;;;;;14.37;10.83;;;;;;;-141.28;100.00;46744.16;5077259;28;20257;-74
2022/08/14 08:35:50;;;;;;;9.77;8.77;;;;;;;-141.28;100.00;46765.72;5094762;28;20199;-74
2022/08/14 08:38:20;;;;;;;14.47;10.90;;;;;;;-141.28;100.00;46765.72;5100717;28;20615;-74
2022/08/14 08:40:48;;;;;;;12.10;10.77;;;;;;;-141.28;100.00;46755.91;5082013;28;20626;-74
2022/08/14 08:43:21;;;;;;;13.77;11.13;;;;;;;-141.28;100.00;46761.78;5089023;28;20224;-75
2022/08/14 08:46:00;;;;;;;11.37;10.23;;;;;;;-141.28;100.00;46750.03;5088614;28;20227;-75
2022/08/14 08:48:28;;;;;;;11.30;10.20;;;;;;;-141.28;100.00;46752.00;5094647;28;20230;-75
2022/08/14 08:50:57;;;;;;;11.67;10.47;;;;;;;-141.28;100.00;46759.84;5094501;28;20241;-75
2022/08/14 08:53:31;;;;;;;11.50;9.17;;;;;;;-141.28;100.00;46777.47;5093460;28;20219;-76
2022/08/14 08:55:59;;;;;;;9.73;7.93;;;;;;;-141.28;100.00;46814.72;5093922;28;20256;-75
2022/08/14 08:58:28;;;;;;;9.63;7.13;;;;;;;-141.28;100.00;46842.19;5094033;28;20191;-75
2022/08/14 09:00:59;;;;;;;8.43;7.53;;;;;;;-141.28;100.00;46891.19;5074131;28;20280;-76
2022/08/14 09:03:31;;;;;;;7.40;6.70;;;;;;;-141.28;100.00;46908.84;5076458;28;20195;-75
2022/08/14 09:06:02;;;;;;;7.90;7.10;;;;;;;-141.28;100.00;46912.78;5093388;28;20199;-74
2022/08/14 09:08:31;;;;;;;8.80;8.00;;;;;;;-141.28;100.00;46908.84;5091334;28;20226;-75
2022/08/14 09:10:59;;;;;;;6.93;6.33;;;;;;;-141.28;100.00;46920.63;5094077;28;20204;-77
2022/08/14 09:13:29;;;;;;;7.30;5.70;;;;;;;-141.28;100.00;46940.22;5093835;28;20199;-75
2022/08/14 09:15:56;;;;;;;5.47;4.77;;;;;;;-141.28;100.00;46930.41;5094039;28;20200;-75
2022/08/14 09:18:26;;;;;;;6.87;5.93;;;;;;;-141.28;100.00;46914.72;5067120;28;20258;-74
2022/08/14 09:20:55;;;;;;;9.83;6.13;;;;;;;-141.28;100.00;46901.00;5093737;28;20676;-74
2022/08/14 09:23:22;;;;;;;8.17;6.20;;;;;;;-141.28;100.00;46924.53;5090672;28;20222;-76
2022/08/14 09:25:52;;;;;;;6.83;5.50;;;;;;;-141.28;100.00;46940.22;5073927;28;20204;-75
2022/08/14 09:28:21;;;;;;;6.73;5.80;;;;;;;-141.28;100.00;46936.31;5073812;28;20223;-76
2022/08/14 09:30:54;;;;;;;7.60;5.87;;;;;;;-141.28;100.00;46904.94;5073794;28;20216;-73
2022/08/14 09:33:43;;;;;;;9.17;5.60;;;;;;;-141.28;100.00;46901.00;5074066;28;20200;-75
2022/08/14 09:36:30;;;;;;;5.93;5.43;;;;;;;-141.28;100.00;46918.66;5074126;28;20201;-77
2022/08/14 09:39:08;;;;;;;6.97;5.73;;;;;;;-141.28;100.00;46908.84;5074860;28;20622;-75
2022/08/14 09:41:49;;;;;;;6.73;5.80;;;;;;;-141.28;100.00;46902.97;5090943;28;20697;-73
2022/08/14 09:44:28;;;;;;;7.93;6.30;;;;;;;-141.28;100.00;46969.63;5078902;28;20277;-75
2022/08/14 09:46:58;;;;;;;9.17;5.70;;;;;;;-141.28;100.00;46983.38;5057600;28;20286;-74
2022/08/14 09:49:33;;;;;;;6.23;5.63;;;;;;;-141.28;100.00;47014.75;5053534;28;20305;-76
2022/08/14 09:52:06;;;;;;;6.87;6.27;;;;;;;-141.28;100.00;47048.06;5053691;28;20201;-74
2022/08/14 09:54:41;;;;;;;7.97;6.07;;;;;;;-141.28;100.00;47144.16;5053764;28;20193;-74
2022/08/14 09:57:09;;;;;;;7.90;6.40;;;;;;;-141.28;100.00;47193.19;5053808;28;20211;-77
2022/08/14 09:59:44;;;;;;;8.23;5.83;;;;;;;-141.28;100.00;47263.78;5052410;28;20319;-76
2022/08/14 10:02:24;;;;;;;6.40;5.73;;;;;;;-141.28;100.00;47318.69;5066311;28;20241;-75
2022/08/14 10:05:03;;;;;;;6.47;5.80;;;;;;;-141.28;100.00;47328.50;5062349;28;20202;-74
2022/08/14 10:07:31;;;;;;;6.70;5.37;;;;;;;-141.28;100.00;47332.41;5071182;28;20541;-76
2022/08/14 10:09:59;;;;;;;7.47;5.17;;;;;;;-141.28;100.00;47383.41;5072473;28;20204;-74
2022/08/14 10:12:29;;;;;;;6.63;5.10;;;;;;;-141.28;100.00;47387.31;5071205;28;20192;-75
2022/08/14 10:14:58;;;;;;;6.17;5.63;;;;;;;-141.28;100.00;47385.34;5072999;28;20228;-74
2022/08/14 10:17:28;;;;;;;6.10;4.90;;;;;;;-141.28;100.00;47367.72;5069260;28;20231;-76
2022/08/14 10:19:55;;;;;;;6.00;5.50;;;;;;;-141.28;100.00;47353.97;5052552;28;20576;-75
2022/08/14 10:22:28;;;;;;;6.80;6.20;;;;;;;-141.28;100.00;47338.28;5052477;28;20205;-75
2022/08/14 10:24:56;;;;;;;8.50;6.70;;;;;;;-141.28;100.00;47320.66;5061368;28;20264;-75
2022/08/14 10:27:25;;;;;;;6.43;5.90;;;;;;;-141.28;100.00;47328.50;5073196;28;20200;-75
2022/08/14 10:29:55;;;;;;;6.43;5.83;;;;;;;-141.28;100.00;47369.66;5072973;28;20690;-75
2022/08/14 10:32:25;;;;;;;6.27;5.67;;;;;;;-141.28;100.00;47363.78;5070830;28;20252;-75
2022/08/14 10:35:05;;;;;;;5.90;5.23;;;;;;;-141.28;100.00;47257.88;5062829;28;20665;-76
2022/08/14 10:37:38;;;;;;;5.63;5.13;;;;;;;-141.28;100.00;47206.91;5072821;28;20189;-74
2022/08/14 10:40:07;;;;;;;6.13;5.50;;;;;;;-141.28;100.00;47148.06;5073542;28;20261;-75
2022/08/14 10:42:39;;;;;;;8.17;6.73;;;;;;;-141.28;100.00;47063.75;5046139;28;20199;-75
2022/08/14 10:45:19;;;;;;;7.27;5.73;;;;;;;-141.28;100.00;46975.53;5058292;28;20311;-76
2022/08/14 10:47:48;;;;;;;6.07;5.47;;;;;;;-141.28;100.00;47001.00;5079776;28;20284;-73
2022/08/14 10:50:17;;;;;;;6.60;5.80;;;;;;;-141.28;100.00;47057.88;5092175;28;20198;-75
2022/08/14 10:52:45;;;;;;;6.30;5.80;;;;;;;-141.28;100.00;47002.97;5083665;28;20197;-75
2022/08/14 10:55:14;;;;;;;5.43;4.97;;;;;;;-141.28;100.00;47052.00;5089229;28;20286;-75
2022/08/14 10:57:50;;;;;;;8.37;7.27;;;;;;;-141.28;100.00;46975.53;5102074;28;20202;-75
2022/08/14 11:00:19;;;;;;;7.13;5.20;;;;;;;-141.28;100.00;46952.00;5099475;28;20273;-73
2022/08/14 11:02:57;;;;;;;5.00;4.40;;;;;;;-141.28;100.00;46940.22;5076841;28;20292;-75
2022/08/14 11:05:27;;;;;;;4.83;4.33;;;;;;;-141.28;100.00;46869.63;5094526;28;20195;-74
2022/08/14 11:08:00;;;;;;;4.90;4.40;;;;;;;-141.28;100.00;46753.94;5092519;28;20203;-73
2022/08/14 11:10:40;;;;;;;4.50;4.10;;;;;;;-141.28;100.00;46814.72;5106066;28;20657;-75
2022/08/14 11:13:09;;;;;;;5.03;4.53;;;;;;;-141.28;100.00;46814.72;5092471;28;20195;-75
2022/08/14 11:15:38;;;;;;;5.43;4.70;;;;;;;-141.28;100.00;46808.84;5092556;28;20687;-75
2022/08/14 11:18:05;;;;;;;5.10;4.60;;;;;;;-141.28;100.00;46822.56;5092653;28;20260;-74
2022/08/14 11:20:34;;;;;;;6.43;4.77;;;;;;;-141.28;100.00;46850.03;5092904;28;20279;-73
2022/08/14 11:23:01;;;;;;;4.87;4.47;;;;;;;-141.28;100.00;46818.66;5074586;28;20608;-75
2022/08/14 11:25:30;;;;;;;5.10;4.60;;;;;;;-141.28;100.00;46838.25;5092318;28;20685;-74